createdAt,value
2022-08-27T00:01:43.344Z,81.48
2022-08-27T00:04:09.735Z,81.96
2022-08-27T00:06:36.565Z,82.12
2022-08-27T00:09:04.184Z,81.17
2022-08-27T00:11:30.505Z,81.96
2022-08-27T00:13:56.796Z,81.27
2022-08-27T00:16:23.528Z,81.21
2022-08-27T00:18:49.858Z,82.30
2022-08-27T00:21:16.172Z,82.14
2022-08-27T00:23:42.472Z,81.34
2022-08-27T00:26:08.809Z,82.38
2022-08-27T00:28:35.273Z,82.70
2022-08-27T00:31:01.593Z,82.11
2022-08-27T00:33:27.894Z,82.13
2022-08-27T00:35:54.202Z,82.10
2022-08-27T00:38:20.520Z,81.98
2022-08-27T00:40:46.893Z,81.92
2022-08-27T00:43:13.313Z,83.60
2022-08-27T00:45:39.690Z,85.79
2022-08-27T00:48:06.080Z,84.51
2022-08-27T00:50:33.449Z,83.84
2022-08-27T00:52:59.757Z,84.67
2022-08-27T00:55:28.720Z,85.21
2022-08-27T00:57:55.017Z,85.00
2022-08-27T01:00:21.319Z,84.56
2022-08-27T01:02:48.371Z,84.23
2022-08-27T01:05:15.266Z,83.70
2022-08-27T01:07:41.486Z,83.61
2022-08-27T01:10:07.794Z,83.86
2022-08-27T01:12:34.599Z,84.91
2022-08-27T01:15:00.892Z,84.84
2022-08-27T01:17:27.532Z,83.96
2022-08-27T01:19:53.839Z,84.15
2022-08-27T01:22:23.193Z,84.24
2022-08-27T01:24:49.867Z,83.18
2022-08-27T01:27:16.219Z,83.50
2022-08-27T01:29:42.522Z,83.40
2022-08-27T01:32:09.392Z,83.12
2022-08-27T01:34:35.629Z,83.34
2022-08-27T01:37:01.941Z,82.88
2022-08-27T01:39:28.244Z,82.95
2022-08-27T01:41:54.539Z,83.72
2022-08-27T01:44:21.083Z,83.85
2022-08-27T01:46:47.474Z,84.03
2022-08-27T01:49:13.866Z,83.71
2022-08-27T01:51:40.184Z,83.52
2022-08-27T01:54:06.831Z,83.76
2022-08-27T01:56:33.145Z,83.41
2022-08-27T01:58:59.447Z,82.94
2022-08-27T02:01:25.842Z,82.92
2022-08-27T02:03:52.213Z,82.68
2022-08-27T02:06:18.522Z,83.50
2022-08-27T02:08:45.065Z,84.47
2022-08-27T02:11:11.385Z,84.44
2022-08-27T02:13:37.718Z,84.64
2022-08-27T02:16:04.187Z,84.29
2022-08-27T02:18:30.520Z,83.82
2022-08-27T02:20:56.833Z,84.03
2022-08-27T02:23:23.140Z,84.12
2022-08-27T02:25:49.457Z,83.82
2022-08-27T02:28:15.785Z,83.94
2022-08-27T02:30:42.103Z,83.63
2022-08-27T02:33:08.418Z,84.08
2022-08-27T02:35:34.724Z,84.88
2022-08-27T02:38:02.023Z,85.63
2022-08-27T02:40:28.473Z,85.80
2022-08-27T02:42:54.880Z,85.59
2022-08-27T02:45:21.170Z,85.08
2022-08-27T02:47:48.493Z,85.11
2022-08-27T02:50:14.821Z,85.06
2022-08-27T02:52:41.124Z,85.15
2022-08-27T02:55:07.454Z,85.05
2022-08-27T02:57:36.382Z,85.32
2022-08-27T03:00:03.220Z,84.71
2022-08-27T03:02:29.615Z,84.48
2022-08-27T03:04:55.982Z,84.03
2022-08-27T03:07:24.279Z,83.95
2022-08-27T03:09:50.597Z,84.20
2022-08-27T03:12:16.904Z,83.76
2022-08-27T03:14:43.296Z,83.56
2022-08-27T03:17:28.103Z,83.94
2022-08-27T03:19:55.521Z,83.47
2022-08-27T03:22:21.825Z,83.43
2022-08-27T03:24:48.167Z,83.46
2022-08-27T03:27:15.329Z,82.72
2022-08-27T03:29:41.650Z,83.76
2022-08-27T03:32:07.976Z,83.48
2022-08-27T03:34:34.318Z,83.56
2022-08-27T03:37:01.376Z,83.70
2022-08-27T03:39:27.701Z,83.68
2022-08-27T03:41:55.706Z,83.64
2022-08-27T03:44:22.209Z,84.15
2022-08-27T03:46:48.700Z,83.96
2022-08-27T03:49:15.170Z,83.18
2022-08-27T03:51:41.473Z,83.65
2022-08-27T03:54:07.771Z,83.98
2022-08-27T03:56:39.187Z,83.84
2022-08-27T03:59:05.820Z,83.96
2022-08-27T04:01:32.209Z,83.91
2022-08-27T04:03:58.539Z,83.34
2022-08-27T04:06:24.835Z,83.80
2022-08-27T04:08:51.130Z,84.23
2022-08-27T04:11:17.595Z,84.01
2022-08-27T04:13:44.364Z,84.32
2022-08-27T04:16:10.785Z,84.57
2022-08-27T04:18:37.111Z,84.21
2022-08-27T04:21:03.433Z,84.32
2022-08-27T04:23:29.740Z,85.25
2022-08-27T04:25:56.061Z,85.12
2022-08-27T04:28:22.351Z,84.43
2022-08-27T04:30:48.681Z,84.07
2022-08-27T04:33:14.984Z,84.55
2022-08-27T04:35:41.279Z,83.81
2022-08-27T04:38:07.636Z,84.99
2022-08-27T04:40:52.970Z,85.92
2022-08-27T04:43:19.290Z,86.35
2022-08-27T04:45:45.591Z,87.55
2022-08-27T04:48:12.016Z,89.08
2022-08-27T04:50:38.452Z,88.41
2022-08-27T04:53:04.747Z,89.41
2022-08-27T04:55:31.166Z,89.97
2022-08-27T04:57:57.502Z,90.57
2022-08-27T05:00:23.805Z,91.40
2022-08-27T05:02:50.159Z,92.21
2022-08-27T05:05:16.936Z,92.09
2022-08-27T05:07:43.423Z,93.34
2022-08-27T05:10:09.720Z,94.95
2022-08-27T05:12:36.029Z,93.74
2022-08-27T05:15:02.336Z,92.87
2022-08-27T05:17:31.308Z,91.60
2022-08-27T05:19:57.628Z,93.24
2022-08-27T05:22:23.948Z,93.77
2022-08-27T05:24:50.451Z,93.00
2022-08-27T05:27:17.688Z,93.14
2022-08-27T05:29:43.983Z,93.99
2022-08-27T05:32:10.433Z,93.94
2022-08-27T05:34:36.725Z,91.69
2022-08-27T05:37:03.041Z,91.53
2022-08-27T05:39:29.338Z,93.22
2022-08-27T05:41:55.647Z,91.91
2022-08-27T05:44:41.071Z,91.24
2022-08-27T05:47:08.089Z,91.40
2022-08-27T05:49:34.429Z,91.41
2022-08-27T05:52:00.736Z,93.00
2022-08-27T05:54:27.060Z,92.83
2022-08-27T05:56:53.361Z,93.25
2022-08-27T05:59:38.207Z,91.91
2022-08-27T06:02:05.853Z,91.80
2022-08-27T06:04:32.170Z,92.46
2022-08-27T06:06:58.462Z,93.20
2022-08-27T06:09:24.785Z,93.91
2022-08-27T06:11:51.092Z,92.57
2022-08-27T06:14:17.409Z,90.74
2022-08-27T06:16:44.303Z,89.53
2022-08-27T06:19:12.113Z,89.96
2022-08-27T06:21:38.347Z,88.64
2022-08-27T06:24:04.652Z,89.28
2022-08-27T06:26:30.953Z,89.94
2022-08-27T06:28:57.856Z,91.36
2022-08-27T06:31:24.160Z,91.76
2022-08-27T06:33:51.680Z,90.87
2022-08-27T06:36:18.176Z,90.25
2022-08-27T06:38:44.628Z,89.66
2022-08-27T06:41:16.396Z,89.72
2022-08-27T06:43:49.539Z,89.45
2022-08-27T06:46:15.916Z,89.85
2022-08-27T06:48:44.903Z,89.06
2022-08-27T06:51:12.505Z,89.94
2022-08-27T06:53:38.809Z,89.90
2022-08-27T06:56:05.291Z,90.12
2022-08-27T06:58:31.600Z,89.38
2022-08-27T07:00:57.909Z,89.75
2022-08-27T07:03:24.216Z,89.15
2022-08-27T07:05:50.689Z,88.92
2022-08-27T07:08:16.996Z,89.32
2022-08-27T07:10:43.320Z,90.50
2022-08-27T07:13:09.637Z,88.53
2022-08-27T07:15:35.990Z,88.54
2022-08-27T07:18:04.105Z,87.98
2022-08-27T07:20:32.979Z,88.81
2022-08-27T07:22:59.288Z,89.27
2022-08-27T07:25:26.163Z,89.74
2022-08-27T07:27:52.403Z,89.66
2022-08-27T07:30:18.741Z,89.96
2022-08-27T07:32:45.058Z,89.68
2022-08-27T07:35:11.356Z,89.58
2022-08-27T07:37:37.660Z,89.33
2022-08-27T07:40:04.010Z,88.23
2022-08-27T07:42:49.200Z,87.64
2022-08-27T07:45:15.510Z,88.35
2022-08-27T07:47:42.351Z,88.33
2022-08-27T07:50:08.660Z,87.51
2022-08-27T07:52:35.146Z,87.35
2022-08-27T07:55:01.495Z,87.19
2022-08-27T07:57:27.806Z,88.80
2022-08-27T07:59:54.102Z,88.20
2022-08-27T08:02:20.495Z,87.31
2022-08-27T08:04:47.036Z,87.51
2022-08-27T08:07:13.823Z,87.19
2022-08-27T08:09:40.119Z,87.93
2022-08-27T08:12:07.464Z,88.40
2022-08-27T08:14:33.807Z,88.41
2022-08-27T08:17:00.628Z,90.69
2022-08-27T08:19:27.444Z,90.52
2022-08-27T08:21:59.468Z,90.40
2022-08-27T08:24:26.796Z,89.28
2022-08-27T08:26:53.131Z,89.95
2022-08-27T08:29:19.512Z,90.33
2022-08-27T08:31:50.305Z,88.92
2022-08-27T08:34:16.804Z,90.99
2022-08-27T08:36:44.636Z,90.46
2022-08-27T08:39:20.301Z,89.21
2022-08-27T08:41:46.611Z,90.16
2022-08-27T08:44:12.912Z,89.82
2022-08-27T08:46:39.717Z,88.47
2022-08-27T08:49:06.024Z,87.96
2022-08-27T08:51:32.660Z,87.46
2022-08-27T08:53:58.984Z,87.83
2022-08-27T08:56:25.315Z,88.33
2022-08-27T08:58:51.615Z,89.45
2022-08-27T09:01:18.580Z,88.75
2022-08-27T09:03:45.003Z,89.98
2022-08-27T09:06:11.945Z,89.39
2022-08-27T09:08:41.698Z,89.34
2022-08-27T09:11:08.456Z,88.77
2022-08-27T09:13:34.759Z,89.52
2022-08-27T09:16:01.147Z,89.76
2022-08-27T09:18:27.999Z,91.48
2022-08-27T09:20:54.574Z,89.82
2022-08-27T09:23:22.563Z,88.64
2022-08-27T09:25:48.881Z,88.28
2022-08-27T09:28:33.816Z,88.01
2022-08-27T09:31:00.235Z,88.01
2022-08-27T09:33:26.616Z,87.76
2022-08-27T09:36:12.935Z,88.84
2022-08-27T09:38:41.122Z,89.27
2022-08-27T09:41:07.388Z,88.15
2022-08-27T09:43:33.679Z,87.03
2022-08-27T09:46:00.144Z,87.61
2022-08-27T09:48:26.528Z,87.58
2022-08-27T09:50:52.921Z,86.73
2022-08-27T09:53:19.221Z,89.38
2022-08-27T09:55:46.599Z,88.28
2022-08-27T09:58:12.927Z,87.71
2022-08-27T10:00:39.253Z,87.27
2022-08-27T10:03:05.633Z,87.13
2022-08-27T10:05:32.171Z,87.51
2022-08-27T10:07:58.598Z,86.78
2022-08-27T10:10:25.512Z,87.03
2022-08-27T10:12:52.176Z,86.29
2022-08-27T10:15:18.466Z,86.70
2022-08-27T10:17:44.770Z,87.23
2022-08-27T10:20:11.096Z,86.85
2022-08-27T10:22:41.179Z,86.97
2022-08-27T10:25:07.484Z,86.73
2022-08-27T10:27:33.800Z,86.88
2022-08-27T10:30:00.686Z,88.68
2022-08-27T10:32:26.961Z,89.17
2022-08-27T10:34:53.699Z,88.88
2022-08-27T10:37:20.056Z,87.21
2022-08-27T10:39:46.391Z,85.15
2022-08-27T10:42:12.694Z,84.11
2022-08-27T10:44:39.377Z,82.68
2022-08-27T10:47:05.712Z,82.33
2022-08-27T10:49:32.045Z,80.98
2022-08-27T10:51:58.896Z,83.29
2022-08-27T10:54:25.136Z,84.76
2022-08-27T10:57:03.687Z,83.36
2022-08-27T10:59:37.704Z,84.09
2022-08-27T11:02:04.031Z,85.31
2022-08-27T11:04:30.368Z,85.65
2022-08-27T11:06:57.775Z,84.29
2022-08-27T11:09:24.081Z,84.75
2022-08-27T11:14:37.613Z,83.90
2022-08-27T11:17:04.117Z,85.54
2022-08-27T11:19:30.403Z,85.81
2022-08-27T11:21:56.699Z,84.72
2022-08-27T11:24:23.006Z,84.03
2022-08-27T11:26:49.313Z,84.83
2022-08-27T11:29:16.048Z,85.25
2022-08-27T11:31:43.537Z,84.02
2022-08-27T11:34:10.235Z,84.98
2022-08-27T11:36:36.532Z,84.76
2022-08-27T11:39:02.865Z,86.07
2022-08-27T11:41:29.172Z,86.56
2022-08-27T11:43:59.586Z,85.47
2022-08-27T11:46:26.200Z,85.83
2022-08-27T11:48:52.541Z,86.71
2022-08-27T11:51:21.314Z,85.63
2022-08-27T11:53:52.185Z,87.00
2022-08-27T11:56:19.100Z,85.87
2022-08-27T11:58:53.204Z,86.06
2022-08-27T12:01:20.020Z,85.33
2022-08-27T12:03:46.593Z,83.84
2022-08-27T12:06:12.931Z,85.81
2022-08-27T12:08:39.339Z,85.60
2022-08-27T12:11:05.633Z,85.46
2022-08-27T12:13:31.983Z,84.63
2022-08-27T12:15:58.443Z,86.29
2022-08-27T12:18:24.789Z,86.09
2022-08-27T12:20:51.107Z,84.85
2022-08-27T12:23:36.384Z,83.71
2022-08-27T12:26:02.692Z,82.33
2022-08-27T12:28:29.007Z,82.23
2022-08-27T12:30:55.311Z,84.71
2022-08-27T12:33:21.656Z,84.83
2022-08-27T12:35:47.978Z,82.96
2022-08-27T12:38:14.655Z,84.22
2022-08-27T12:40:42.452Z,83.06
2022-08-27T12:43:08.822Z,84.51
2022-08-27T12:45:35.121Z,84.63
2022-08-27T12:48:05.268Z,84.47
2022-08-27T12:50:31.840Z,85.11
2022-08-27T12:52:58.244Z,85.25
2022-08-27T12:55:25.012Z,85.65
2022-08-27T12:57:51.358Z,86.49
2022-08-27T13:00:19.398Z,86.21
2022-08-27T13:02:50.844Z,85.96
2022-08-27T13:05:17.301Z,87.33
2022-08-27T13:07:43.613Z,86.49
2022-08-27T13:10:10.381Z,87.66
2022-08-27T13:12:36.677Z,86.66
2022-08-27T13:15:02.979Z,86.81
2022-08-27T13:17:29.274Z,85.93
2022-08-27T13:19:57.888Z,86.20
2022-08-27T13:22:24.195Z,86.55
2022-08-27T13:24:50.506Z,86.52
2022-08-27T13:27:16.809Z,86.12
2022-08-27T13:29:43.108Z,87.71
2022-08-27T13:32:09.426Z,85.85
2022-08-27T13:34:35.716Z,86.42
2022-08-27T13:37:06.013Z,87.60
2022-08-27T13:39:32.351Z,86.84
2022-08-27T13:41:58.701Z,86.19
2022-08-27T13:44:25.036Z,86.10
2022-08-27T13:46:51.411Z,87.30
2022-08-27T13:49:17.866Z,86.87
2022-08-27T13:51:45.501Z,87.23
2022-08-27T13:54:15.805Z,87.07
2022-08-27T13:56:42.112Z,86.62
2022-08-27T13:59:10.510Z,87.74
2022-08-27T14:01:41.593Z,86.17
2022-08-27T14:04:07.968Z,86.88
2022-08-27T14:06:35.997Z,86.81
2022-08-27T14:09:02.406Z,85.97
2022-08-27T14:11:28.701Z,85.75
2022-08-27T14:13:55.412Z,84.83
2022-08-27T14:16:21.757Z,83.83
2022-08-27T14:18:58.894Z,83.85
2022-08-27T14:21:25.678Z,83.36
2022-08-27T14:23:51.986Z,83.99
2022-08-27T14:26:18.363Z,84.24
2022-08-27T14:28:44.875Z,83.59
2022-08-27T14:31:11.641Z,83.34
2022-08-27T14:33:37.927Z,82.37
2022-08-27T14:36:04.231Z,83.47
2022-08-27T14:38:31.586Z,82.37
2022-08-27T14:40:58.490Z,82.20
2022-08-27T14:43:25.160Z,83.91
2022-08-27T14:45:51.677Z,85.28
2022-08-27T14:48:18.648Z,84.65
2022-08-27T14:50:45.831Z,84.85
2022-08-27T14:53:12.115Z,87.40
2022-08-27T14:55:38.686Z,86.43
2022-08-27T14:58:05.019Z,86.25
2022-08-27T15:00:31.339Z,86.69
2022-08-27T15:02:57.884Z,89.27
2022-08-27T15:05:24.946Z,87.55
2022-08-27T15:07:51.408Z,87.01
2022-08-27T15:10:17.707Z,86.48
2022-08-27T15:12:43.995Z,87.84
2022-08-27T15:15:10.522Z,86.25
2022-08-27T15:17:36.840Z,87.37
2022-08-27T15:20:03.255Z,90.31
2022-08-27T15:22:29.724Z,88.38
2022-08-27T15:24:56.024Z,87.92
2022-08-27T15:27:22.341Z,89.11
2022-08-27T15:29:53.853Z,89.14
2022-08-27T15:32:20.180Z,90.78
2022-08-27T15:34:48.957Z,91.42
2022-08-27T15:37:15.317Z,91.55
2022-08-27T15:39:41.611Z,91.01
2022-08-27T15:42:08.414Z,90.56
2022-08-27T15:44:34.722Z,89.96
2022-08-27T15:47:01.387Z,89.31
2022-08-27T15:49:27.701Z,88.84
2022-08-27T15:51:54.048Z,88.63
2022-08-27T15:54:20.663Z,88.27
2022-08-27T15:56:46.999Z,87.66
2022-08-27T15:59:13.304Z,87.76
2022-08-27T16:04:06.163Z,87.95
2022-08-27T16:06:32.467Z,89.36
2022-08-27T16:08:58.788Z,89.95
2022-08-27T16:11:25.096Z,88.67
2022-08-27T16:13:51.459Z,88.41
2022-08-27T16:16:18.101Z,87.76
2022-08-27T16:18:44.464Z,87.97
2022-08-27T16:21:10.765Z,88.23
2022-08-27T16:23:37.434Z,89.00
2022-08-27T16:26:03.800Z,88.15
2022-08-27T16:28:30.120Z,88.92
2022-08-27T16:30:56.472Z,88.74
2022-08-27T16:33:23.364Z,89.28
2022-08-27T16:35:49.595Z,88.96
2022-08-27T16:38:16.489Z,89.37
2022-08-27T16:40:43.949Z,89.18
2022-08-27T16:43:10.376Z,89.95
2022-08-27T16:45:36.686Z,90.08
2022-08-27T16:48:21.571Z,90.47
2022-08-27T16:50:47.867Z,89.83
2022-08-27T16:53:14.252Z,89.78
2022-08-27T16:55:40.585Z,89.72
2022-08-27T16:58:06.911Z,89.57
2022-08-27T17:00:33.352Z,89.42
2022-08-27T17:02:59.686Z,91.09
2022-08-27T17:05:34.607Z,90.25
2022-08-27T17:08:07.707Z,90.17
2022-08-27T17:10:38.274Z,89.75
2022-08-27T17:13:04.692Z,90.20
2022-08-27T17:15:31.036Z,89.66
2022-08-27T17:17:57.876Z,89.41
2022-08-27T17:20:24.176Z,89.34
2022-08-27T17:22:51.571Z,89.90
2022-08-27T17:25:17.863Z,89.95
2022-08-27T17:27:44.177Z,90.22
2022-08-27T17:30:10.528Z,90.85
2022-08-27T17:32:37.284Z,90.28
2022-08-27T17:35:06.261Z,91.42
2022-08-27T17:37:32.880Z,92.96
2022-08-27T17:39:59.298Z,92.94
2022-08-27T17:42:26.417Z,92.84
2022-08-27T17:44:52.723Z,91.47
2022-08-27T17:47:20.643Z,91.50
2022-08-27T17:49:47.130Z,91.53
2022-08-27T17:52:13.524Z,90.88
2022-08-27T17:54:39.867Z,91.66
2022-08-27T17:57:06.877Z,90.98
2022-08-27T17:59:33.264Z,91.13
2022-08-27T18:01:59.823Z,91.12
2022-08-27T18:04:26.149Z,91.75
2022-08-27T18:06:52.447Z,91.53
2022-08-27T18:09:18.762Z,91.30
2022-08-27T18:11:45.062Z,91.46
2022-08-27T18:14:11.711Z,91.12
2022-08-27T18:16:38.485Z,91.16
2022-08-27T18:19:07.008Z,91.17
2022-08-27T18:21:33.551Z,92.50
2022-08-27T18:24:00.667Z,91.92
2022-08-27T18:26:26.987Z,91.80
2022-08-27T18:28:53.703Z,93.83
2022-08-27T18:31:20.091Z,93.79
2022-08-27T18:33:46.508Z,95.96
2022-08-27T18:36:12.844Z,94.31
2022-08-27T18:38:39.171Z,93.95
2022-08-27T18:41:05.469Z,93.61
2022-08-27T18:43:34.911Z,93.03
2022-08-27T18:46:01.326Z,92.78
2022-08-27T18:48:27.645Z,92.05
2022-08-27T18:50:55.503Z,92.34
2022-08-27T18:53:21.927Z,93.27
2022-08-27T18:55:48.245Z,93.95
2022-08-27T18:58:14.536Z,93.65
2022-08-27T19:00:40.932Z,94.04
2022-08-27T19:03:07.832Z,92.73
2022-08-27T19:05:34.458Z,91.13
2022-08-27T19:08:02.104Z,92.86
2022-08-27T19:10:28.528Z,91.91
2022-08-27T19:12:54.857Z,91.38
2022-08-27T19:15:21.190Z,91.00
2022-08-27T19:17:47.509Z,91.33
2022-08-27T19:20:15.785Z,90.96
2022-08-27T19:22:42.084Z,90.65
2022-08-27T19:25:08.409Z,91.17
2022-08-27T19:27:34.704Z,90.67
2022-08-27T19:30:01.042Z,90.60
2022-08-27T19:32:27.348Z,91.16
2022-08-27T19:34:53.682Z,91.09
2022-08-27T19:37:19.986Z,91.84
2022-08-27T19:39:46.341Z,92.20
2022-08-27T19:42:12.697Z,92.72
2022-08-27T19:44:38.997Z,92.21
2022-08-27T19:47:05.325Z,91.58
2022-08-27T19:49:31.660Z,90.95
2022-08-27T19:51:57.961Z,91.40
2022-08-27T19:54:32.654Z,90.45
2022-08-27T19:57:00.371Z,91.45
2022-08-27T19:59:26.664Z,92.15
2022-08-27T20:01:53.844Z,90.85
2022-08-27T20:04:20.177Z,90.47
2022-08-27T20:06:46.542Z,91.15
2022-08-27T20:09:15.973Z,91.92
2022-08-27T20:11:42.270Z,92.28
2022-08-27T20:14:10.299Z,91.70
2022-08-27T20:16:36.888Z,93.87
2022-08-27T20:19:03.610Z,93.43
2022-08-27T20:21:29.948Z,92.82
2022-08-27T20:23:56.249Z,95.25
2022-08-27T20:26:23.203Z,93.46
2022-08-27T20:28:49.737Z,94.54
2022-08-27T20:31:17.324Z,95.94
2022-08-27T20:33:44.320Z,94.59
2022-08-27T20:36:11.032Z,94.11
2022-08-27T20:38:37.352Z,93.77
2022-08-27T20:41:03.656Z,93.63
2022-08-27T20:43:29.967Z,94.17
2022-08-27T20:45:56.441Z,94.79
2022-08-27T20:48:22.863Z,93.91
2022-08-27T20:50:49.160Z,93.19
2022-08-27T20:53:15.477Z,94.11
2022-08-27T20:55:41.791Z,96.34
2022-08-27T20:58:26.748Z,96.45
2022-08-27T21:00:53.080Z,96.07
2022-08-27T21:03:19.441Z,98.20
2022-08-27T21:05:48.351Z,100.00
2022-08-27T21:08:14.652Z,100.00
2022-08-27T21:10:41.676Z,100.00
2022-08-27T21:13:11.914Z,100.00
2022-08-27T21:15:38.688Z,98.77
2022-08-27T21:18:05.020Z,99.83
2022-08-27T21:20:32.265Z,98.32
2022-08-27T21:22:58.564Z,98.50
2022-08-27T21:25:25.369Z,98.55
2022-08-27T21:27:51.691Z,98.78
2022-08-27T21:30:18.011Z,99.39
2022-08-27T21:32:44.315Z,99.24
2022-08-27T21:35:10.616Z,100.00
2022-08-27T21:37:37.930Z,99.83
2022-08-27T21:40:04.302Z,98.41
2022-08-27T21:42:30.620Z,98.86
2022-08-27T21:44:56.943Z,97.82
2022-08-27T21:47:23.245Z,97.62
2022-08-27T21:49:49.591Z,98.44
2022-08-27T21:52:15.941Z,98.36
2022-08-27T21:54:42.254Z,97.10
2022-08-27T21:57:08.683Z,97.28
2022-08-27T21:59:38.828Z,97.07
2022-08-27T22:02:18.085Z,98.38
2022-08-27T22:04:51.407Z,98.50
2022-08-27T22:07:17.739Z,97.05
2022-08-27T22:09:44.057Z,96.73
2022-08-27T22:12:10.386Z,97.52
2022-08-27T22:14:36.759Z,97.77
2022-08-27T22:17:04.102Z,98.78
2022-08-27T22:19:30.407Z,97.98
2022-08-27T22:21:56.726Z,100.00
2022-08-27T22:24:23.024Z,99.03
2022-08-27T22:26:49.319Z,97.58
2022-08-27T22:29:16.483Z,97.51
2022-08-27T22:31:43.004Z,98.01
2022-08-27T22:34:14.964Z,97.59
2022-08-27T22:36:41.351Z,97.61
2022-08-27T22:39:07.704Z,98.73
2022-08-27T22:41:35.012Z,99.67
2022-08-27T22:44:01.802Z,98.32
2022-08-27T22:46:28.139Z,96.99
2022-08-27T22:48:54.468Z,96.63
2022-08-27T22:51:20.770Z,96.51
2022-08-27T22:53:47.068Z,96.19
2022-08-27T22:56:13.379Z,96.02
2022-08-27T22:58:40.589Z,96.08
2022-08-27T23:01:12.214Z,96.91
2022-08-27T23:03:38.571Z,96.10
2022-08-27T23:06:04.946Z,95.14
2022-08-27T23:08:31.818Z,96.90
2022-08-27T23:10:58.121Z,95.75
2022-08-27T23:13:24.457Z,95.44
2022-08-27T23:15:50.799Z,96.81
2022-08-27T23:18:17.152Z,96.35
2022-08-27T23:20:43.459Z,95.58
2022-08-27T23:23:10.111Z,95.89
2022-08-27T23:25:55.824Z,95.72
2022-08-27T23:28:23.388Z,95.21
2022-08-27T23:30:49.787Z,94.58
2022-08-27T23:33:16.299Z,95.47
2022-08-27T23:35:47.554Z,96.34
2022-08-27T23:38:13.995Z,98.17
2022-08-27T23:40:40.857Z,98.37
2022-08-27T23:43:07.314Z,98.96
2022-08-27T23:45:38.315Z,100.00
2022-08-27T23:48:06.744Z,98.35
2022-08-27T23:50:34.042Z,100.00
2022-08-27T23:53:00.767Z,100.00
2022-08-27T23:55:27.071Z,100.00
2022-08-27T23:57:57.404Z,99.38
